Time;durP1;ratioP1;P1;durP2;ratioP2;P2;SDS_P1;SDS_P2;PMS_P1;PMS_P2;Temp;Humidity;BMP_temperature;BMP_pressure;BME280_temperature;BME280_humidity;BME280_pressure;Samples;Min_cycle;Max_cycle;Signal;HPM_P1;HPM_P2
2022/12/17 13:08:17;;;;;;;31.53;17.50;;;1.00;99.90;;;;;;7392315;19;20461;-76
2022/12/17 13:10:42;;;;;;;32.37;17.13;;;1.00;99.90;;;;;;7394003;19;20141;-75
2022/12/17 13:13:28;;;;;;;28.90;16.33;;;0.90;99.90;;;;;;7393847;19;20146;-75
2022/12/17 13:15:58;;;;;;;32.33;17.27;;;1.10;99.90;;;;;;7393528;19;20595;-75
2022/12/17 13:18:24;;;;;;;30.33;16.47;;;0.80;99.90;;;;;;7395817;19;20602;-75
2022/12/17 13:21:03;;;;;;;36.33;20.20;;;0.90;99.90;;;;;;7392386;19;20135;-75
2022/12/17 13:23:36;;;;;;;33.90;18.60;;;1.10;99.90;;;;;;7393563;19;20991;-76
2022/12/17 13:26:38;;;;;;;28.23;16.57;;;0.90;99.90;;;;;;7392075;19;20153;-74
2022/12/17 13:29:33;;;;;;;35.17;17.83;;;0.90;99.90;;;;;;7392164;19;20149;-75
2022/12/17 13:32:32;;;;;;;33.50;17.27;;;1.00;99.90;;;;;;7392592;19;20156;-75
2022/12/17 13:35:30;;;;;;;35.17;18.90;;;0.90;99.90;;;;;;7393709;19;20164;-74
2022/12/17 13:38:07;;;;;;;33.23;16.37;;;0.80;99.90;;;;;;7391961;19;20168;-75
2022/12/17 13:40:53;;;;;;;32.17;18.37;;;0.90;99.90;;;;;;7392380;19;20221;-75
2022/12/17 13:43:23;;;;;;;33.33;17.93;;;1.00;99.90;;;;;;7390583;19;20144;-75
2022/12/17 13:45:51;;;;;;;32.57;17.23;;;1.10;99.90;;;;;;7391340;19;20146;-76
2022/12/17 13:48:21;;;;;;;33.87;18.10;;;1.00;99.90;;;;;;7391148;19;20142;-76
2022/12/17 13:50:58;;;;;;;34.67;17.30;;;1.00;99.90;;;;;;7391694;19;20150;-75
2022/12/17 13:53:26;;;;;;;36.07;18.80;;;1.00;99.90;;;;;;7392185;19;20273;-74
2022/12/17 13:55:56;;;;;;;37.00;18.60;;;0.90;99.90;;;;;;7391518;19;20138;-75
2022/12/17 13:58:30;;;;;;;31.87;17.13;;;0.90;99.90;;;;;;7390709;19;20131;-76
2022/12/17 14:01:04;;;;;;;29.90;16.50;;;0.50;99.90;;;;;;7388289;19;20163;-76
2022/12/17 14:03:30;;;;;;;29.27;16.80;;;0.60;99.90;;;;;;7388170;19;20621;-76
2022/12/17 14:05:56;;;;;;;34.33;18.03;;;0.70;99.90;;;;;;7388907;19;20213;-75
2022/12/17 14:08:27;;;;;;;34.63;16.87;;;0.60;99.90;;;;;;7389656;19;20138;-75
2022/12/17 14:13:41;;;;;;;30.53;17.20;;;0.70;99.90;;;;;;7387387;19;20134;-75
2022/12/17 14:16:07;;;;;;;31.33;16.93;;;0.80;99.90;;;;;;7389331;19;20163;-76
2022/12/17 14:18:33;;;;;;;29.97;16.97;;;0.80;99.90;;;;;;7389480;19;20149;-78
2022/12/17 14:20:59;;;;;;;33.10;16.83;;;0.60;99.90;;;;;;7390266;19;20130;-78
2022/12/17 14:23:30;;;;;;;35.00;17.80;;;0.70;99.90;;;;;;7387801;19;20139;-75
2022/12/17 14:25:56;;;;;;;33.50;17.03;;;0.70;99.90;;;;;;7390415;19;20157;-76
2022/12/17 14:28:29;;;;;;;33.73;16.90;;;0.30;99.90;;;;;;7391897;19;20135;-76
2022/12/17 14:31:28;;;;;;;30.97;17.87;;;0.50;99.90;;;;;;7390770;19;20145;-74
2022/12/17 14:34:06;;;;;;;31.00;16.80;;;0.10;99.90;;;;;;7390830;19;20135;-75
2022/12/17 14:36:40;;;;;;;32.27;17.60;;;0.50;99.90;;;;;;7389204;19;20130;-75
2022/12/17 14:39:15;;;;;;;36.27;18.87;;;0.70;99.90;;;;;;7391546;19;20669;-75
2022/12/17 14:44:28;;;;;;;33.50;17.20;;;0.70;99.90;;;;;;7385933;19;20150;-75
2022/12/17 14:47:21;;;;;;;33.13;17.77;;;0.70;99.90;;;;;;7387390;19;20235;-75
2022/12/17 14:49:57;;;;;;;35.77;18.37;;;0.60;99.90;;;;;;7386367;19;20134;-75
2022/12/17 14:52:32;;;;;;;31.17;17.90;;;0.60;99.90;;;;;;7386517;19;20134;-77
2022/12/17 14:54:58;;;;;;;31.60;16.60;;;0.70;99.90;;;;;;7388789;19;20493;-75
2022/12/17 14:57:24;;;;;;;31.90;18.07;;;0.50;99.90;;;;;;7387352;19;20190;-75
2022/12/17 14:59:51;;;;;;;37.50;19.10;;;0.40;99.90;;;;;;7389358;19;20490;-75
2022/12/17 15:02:27;;;;;;;31.47;18.03;;;0.60;99.90;;;;;;7388762;19;20135;-75
2022/12/17 15:04:57;;;;;;;30.37;18.33;;;0.60;99.90;;;;;;7386748;19;20249;-75
2022/12/17 15:07:25;;;;;;;38.17;19.27;;;0.60;99.90;;;;;;7388960;19;20163;-74
2022/12/17 15:09:59;;;;;;;40.53;20.03;;;0.40;99.90;;;;;;7383578;19;20139;-74
2022/12/17 15:12:26;;;;;;;35.47;19.27;;;0.30;99.90;;;;;;7385914;19;20683;-75
2022/12/17 15:14:54;;;;;;;32.57;18.23;;;0.50;99.90;;;;;;7392882;19;20611;-74
2022/12/17 15:17:19;;;;;;;36.27;19.57;;;0.60;99.90;;;;;;7394567;19;20146;-75
2022/12/17 15:19:45;;;;;;;32.23;18.60;;;0.80;99.90;;;;;;7396047;19;20490;-76
2022/12/17 15:22:16;;;;;;;36.23;19.17;;;0.70;99.90;;;;;;7394480;19;20149;-74
2022/12/17 15:24:43;;;;;;;38.20;19.30;;;0.70;99.90;;;;;;7394251;19;20147;-75
2022/12/17 15:27:15;;;;;;;36.33;19.30;;;0.70;99.90;;;;;;7396548;19;20139;-75
2022/12/17 15:29:42;;;;;;;34.60;18.63;;;0.70;99.90;;;;;;7396155;19;20145;-75
2022/12/17 15:32:21;;;;;;;34.57;18.83;;;0.70;99.90;;;;;;7397223;19;20701;-75
2022/12/17 15:34:47;;;;;;;33.40;18.77;;;0.70;99.90;;;;;;7398460;19;20147;-75
2022/12/17 15:37:14;;;;;;;34.73;19.50;;;0.70;99.90;;;;;;7396225;19;20146;-75
2022/12/17 15:39:40;;;;;;;32.93;19.10;;;0.50;99.90;;;;;;7398678;19;20143;-74
2022/12/17 15:44:51;;;;;;;38.87;20.43;;;0.10;99.90;;;;;;7399467;19;20161;-74
2022/12/17 15:47:18;;;;;;;33.67;18.30;;;0.10;99.90;;;;;;7396820;19;20134;-74
2022/12/17 15:49:44;;;;;;;38.70;19.80;;;0.20;99.90;;;;;;7396244;19;20150;-75
2022/12/17 15:52:13;;;;;;;40.30;19.77;;;0.30;99.90;;;;;;7396063;19;20138;-74
2022/12/17 15:54:43;;;;;;;37.97;20.37;;;0.40;99.90;;;;;;7395566;19;20576;-75
2022/12/17 15:57:09;;;;;;;40.57;21.37;;;0.40;99.90;;;;;;7396653;19;20142;-74
2022/12/17 15:59:35;;;;;;;33.90;18.97;;;0.40;99.90;;;;;;7398566;19;20135;-76
2022/12/17 16:02:09;;;;;;;35.27;18.63;;;0.40;99.90;;;;;;7396405;19;20226;-75
2022/12/17 16:04:39;;;;;;;36.40;19.73;;;0.40;99.90;;;;;;7393203;19;20590;-74
2022/12/17 16:07:05;;;;;;;33.73;19.20;;;0.30;99.90;;;;;;7396619;19;20140;-74
2022/12/17 16:09:31;;;;;;;30.87;17.73;;;-0.10;99.90;;;;;;7396660;19;20138;-75
2022/12/17 16:11:57;;;;;;;36.00;19.97;;;0.10;99.90;;;;;;7395657;19;20142;-72
2022/12/17 16:14:23;;;;;;;33.63;18.87;;;0.30;99.90;;;;;;7393926;19;20172;-74
2022/12/17 16:16:49;;;;;;;36.03;19.87;;;0.50;99.90;;;;;;7395413;19;20206;-73
2022/12/17 16:19:16;;;;;;;38.60;20.53;;;0.50;99.90;;;;;;7394168;19;20594;-76
2022/12/17 16:21:42;;;;;;;38.77;20.27;;;0.50;99.90;;;;;;7393243;19;20549;-74
2022/12/17 16:24:09;;;;;;;36.20;19.87;;;0.50;99.90;;;;;;7396003;19;20143;-73
2022/12/17 16:26:36;;;;;;;37.93;18.77;;;0.50;99.90;;;;;;7396552;19;20139;-75
2022/12/17 16:29:03;;;;;;;38.43;18.83;;;0.40;99.90;;;;;;7393677;19;20178;-74
2022/12/17 16:31:28;;;;;;;41.83;20.37;;;0.40;99.90;;;;;;7393987;19;20134;-76
2022/12/17 16:33:55;;;;;;;35.37;19.40;;;0.40;99.90;;;;;;7394293;19;20609;-74
2022/12/17 16:36:21;;;;;;;35.57;19.73;;;0.30;99.90;;;;;;7394869;19;20489;-75
2022/12/17 16:38:52;;;;;;;40.17;20.80;;;-0.20;99.90;;;;;;7392695;19;20174;-73
2022/12/17 16:41:21;;;;;;;40.83;20.07;;;0.00;99.90;;;;;;7394566;19;20131;-75
2022/12/17 16:43:47;;;;;;;35.23;18.93;;;0.20;99.90;;;;;;7391602;19;20134;-74
2022/12/17 16:46:33;;;;;;;42.17;19.53;;;-0.20;99.90;;;;;;7395510;19;20210;-73
2022/12/17 16:49:15;;;;;;;34.10;17.97;;;-0.20;99.90;;;;;;7392647;19;20145;-74
2022/12/17 16:51:41;;;;;;;37.20;20.47;;;-0.60;99.90;;;;;;7394354;19;20159;-73
2022/12/17 16:54:12;;;;;;;32.70;19.20;;;-0.90;99.90;;;;;;7395619;19;20147;-73
2022/12/17 16:56:37;;;;;;;37.73;19.70;;;-1.10;99.90;;;;;;7390298;19;20143;-74
2022/12/17 16:59:06;;;;;;;37.37;19.53;;;-1.00;99.90;;;;;;7395464;19;20155;-73
2022/12/17 17:01:33;;;;;;;37.27;20.13;;;-1.00;99.90;;;;;;7393000;19;20150;-74
2022/12/17 17:03:58;;;;;;;39.40;21.67;;;-0.80;99.90;;;;;;7393272;19;20178;-72
2022/12/17 17:06:25;;;;;;;40.50;21.00;;;-0.40;99.90;;;;;;7389920;19;20646;-75
2022/12/17 17:08:51;;;;;;;42.83;21.83;;;-0.20;99.90;;;;;;7395400;19;20143;-76
2022/12/17 17:11:24;;;;;;;42.80;21.37;;;0.00;99.90;;;;;;7394049;19;20158;-75
2022/12/17 17:13:52;;;;;;;38.67;20.43;;;-0.20;99.90;;;;;;7393152;19;20206;-75
2022/12/17 17:16:22;;;;;;;40.90;21.73;;;-0.20;99.90;;;;;;7394001;19;20158;-75
2022/12/17 17:18:48;;;;;;;42.57;20.43;;;-0.20;99.90;;;;;;7393298;19;20159;-73
2022/12/17 17:21:27;;;;;;;41.00;21.60;;;-0.10;99.90;;;;;;7394292;19;20595;-74
2022/12/17 17:23:58;;;;;;;46.70;22.77;;;-0.10;99.90;;;;;;7394367;19;20149;-73
2022/12/17 17:26:26;;;;;;;42.63;20.97;;;-0.10;99.90;;;;;;7393440;19;20174;-75
2022/12/17 17:28:52;;;;;;;45.80;23.93;;;-0.30;99.90;;;;;;7393378;19;20154;-74
2022/12/17 17:31:18;;;;;;;41.83;21.43;;;-0.20;99.90;;;;;;7393762;19;20482;-75
2022/12/17 17:33:47;;;;;;;41.23;21.00;;;-0.20;99.90;;;;;;7392882;19;20725;-75
2022/12/17 17:36:23;;;;;;;41.00;21.20;;;-0.10;99.90;;;;;;7390529;19;20147;-75
2022/12/17 17:38:51;;;;;;;40.73;20.93;;;-0.10;99.90;;;;;;7395157;19;20587;-75
2022/12/17 17:41:20;;;;;;;39.67;22.13;;;0.00;99.90;;;;;;7395402;19;20165;-75
2022/12/17 17:43:46;;;;;;;41.63;20.93;;;0.00;99.90;;;;;;7391742;19;20146;-74
2022/12/17 17:46:17;;;;;;;45.27;23.10;;;-0.20;99.90;;;;;;7389581;19;20150;-75
2022/12/17 17:48:44;;;;;;;41.00;20.90;;;-0.50;99.90;;;;;;7394538;19;20546;-74
2022/12/17 17:51:18;;;;;;;42.70;22.80;;;-0.30;99.90;;;;;;7394043;19;20593;-75
2022/12/17 17:53:49;;;;;;;40.73;22.67;;;-0.10;99.90;;;;;;7392069;19;20154;-76
2022/12/17 17:56:18;;;;;;;45.70;21.90;;;-0.10;99.90;;;;;;7392779;19;20149;-74
2022/12/17 17:58:46;;;;;;;43.40;21.37;;;0.00;99.90;;;;;;7392261;19;20134;-75
2022/12/17 18:01:15;;;;;;;42.73;21.20;;;0.00;99.90;;;;;;7389901;19;20146;-74
2022/12/17 18:03:41;;;;;;;40.57;20.77;;;0.00;99.90;;;;;;7391510;19;20182;-73
2022/12/17 18:06:10;;;;;;;44.53;22.20;;;-0.10;99.90;;;;;;7390972;19;20149;-75
2022/12/17 18:08:36;;;;;;;45.13;23.30;;;0.00;99.90;;;;;;7392600;19;20130;-75
2022/12/17 18:11:05;;;;;;;45.57;22.73;;;-0.10;99.90;;;;;;7392074;19;20137;-76
2022/12/17 18:16:18;;;;;;;44.90;22.43;;;-0.30;99.90;;;;;;7390890;19;20663;-75
2022/12/17 18:18:44;;;;;;;40.80;21.83;;;-0.20;99.90;;;;;;7393317;19;20130;-75
2022/12/17 18:21:13;;;;;;;41.30;21.47;;;-0.10;99.90;;;;;;7392923;19;20161;-76
2022/12/17 18:23:39;;;;;;;42.37;20.43;;;-0.10;99.90;;;;;;7388078;19;20155;-75
2022/12/17 18:26:15;;;;;;;37.53;20.30;;;-0.10;99.90;;;;;;7393479;19;20139;-75
2022/12/17 18:28:42;;;;;;;46.47;21.43;;;0.00;99.90;;;;;;7391004;19;20591;-76
2022/12/17 18:31:11;;;;;;;41.30;20.80;;;-0.10;99.90;;;;;;7391175;19;20138;-76
2022/12/17 18:33:40;;;;;;;40.47;20.67;;;-0.10;99.90;;;;;;7390870;19;20535;-76
2022/12/17 18:36:15;;;;;;;44.87;21.63;;;-0.10;99.90;;;;;;7391725;19;20174;-76
2022/12/17 18:38:41;;;;;;;44.07;21.03;;;-0.30;99.90;;;;;;7392805;19;20205;-76
2022/12/17 18:44:05;;;;;;;48.93;22.73;;;-0.40;99.90;;;;;;7390250;19;20726;-75
2022/12/17 18:46:33;;;;;;;43.23;20.80;;;-0.60;99.90;;;;;;7392017;19;20134;-76
2022/12/17 18:49:01;;;;;;;42.57;22.87;;;-0.40;99.90;;;;;;7396095;19;20635;-75
2022/12/17 18:51:27;;;;;;;41.30;21.67;;;-0.40;99.90;;;;;;7394470;19;20123;-77
2022/12/17 18:53:58;;;;;;;43.90;21.77;;;-0.30;99.90;;;;;;7397643;19;20139;-73
2022/12/17 18:56:24;;;;;;;42.77;21.20;;;-0.30;99.90;;;;;;7396846;19;20181;-72
2022/12/17 18:58:54;;;;;;;48.40;21.80;;;-0.30;99.90;;;;;;7395790;19;20612;-74
2022/12/17 19:01:23;;;;;;;45.47;22.20;;;-0.40;99.90;;;;;;7396091;19;20181;-76
2022/12/17 19:03:49;;;;;;;45.57;21.87;;;-0.50;99.90;;;;;;7394801;19;20193;-75
2022/12/17 19:06:17;;;;;;;46.80;22.40;;;-0.50;99.90;;;;;;7397542;19;20249;-75
2022/12/17 19:08:44;;;;;;;45.67;22.30;;;-0.50;99.90;;;;;;7394560;19;20239;-76
2022/12/17 19:11:11;;;;;;;45.93;21.77;;;-0.70;99.90;;;;;;7396503;19;20156;-74
2022/12/17 19:13:37;;;;;;;41.33;20.30;;;-0.70;99.90;;;;;;7396245;19;20526;-75
2022/12/17 19:16:09;;;;;;;42.73;21.30;;;-0.70;99.90;;;;;;7396620;19;20144;-74
2022/12/17 19:18:36;;;;;;;39.37;21.20;;;-0.70;99.90;;;;;;7396764;19;20154;-72
2022/12/17 19:21:02;;;;;;;42.70;22.37;;;-0.70;99.90;;;;;;7394238;19;20142;-76
2022/12/17 19:23:28;;;;;;;45.50;21.60;;;-0.80;99.90;;;;;;7391268;19;20122;-75
2022/12/17 19:25:55;;;;;;;47.10;21.83;;;-0.70;99.90;;;;;;7396334;19;20158;-75
2022/12/17 19:28:23;;;;;;;44.17;20.90;;;-0.70;99.90;;;;;;7393999;19;20131;-73
2022/12/17 19:30:55;;;;;;;54.90;23.90;;;-0.80;99.90;;;;;;7397336;19;20556;-73
2022/12/17 19:33:20;;;;;;;47.43;22.07;;;-0.90;99.90;;;;;;7395949;19;20127;-72
2022/12/17 19:35:46;;;;;;;50.87;21.90;;;-1.00;99.90;;;;;;7396131;19;20464;-73
2022/12/17 19:38:12;;;;;;;44.47;22.30;;;-0.90;99.90;;;;;;7396285;19;20211;-75
2022/12/17 19:40:38;;;;;;;46.07;21.80;;;-0.90;99.90;;;;;;7394533;19;20139;-74
2022/12/17 19:43:03;;;;;;;46.93;21.33;;;-0.90;99.90;;;;;;7392840;19;20487;-73
2022/12/17 19:45:31;;;;;;;44.43;21.93;;;-0.90;99.90;;;;;;7395238;19;20624;-74
2022/12/17 19:47:56;;;;;;;54.60;23.87;;;-1.00;99.90;;;;;;7397951;19;20591;-74
2022/12/17 19:50:22;;;;;;;41.73;21.17;;;-1.00;99.90;;;;;;7396136;19;20138;-74
2022/12/17 19:52:48;;;;;;;49.80;23.77;;;-1.00;99.90;;;;;;7395834;19;20137;-74
2022/12/17 19:55:14;;;;;;;48.00;22.67;;;-0.90;99.90;;;;;;7395451;19;20134;-75
2022/12/17 19:57:44;;;;;;;42.77;21.20;;;-0.90;99.90;;;;;;7395042;19;20154;-73
2022/12/17 20:00:10;;;;;;;46.83;22.93;;;-1.00;99.90;;;;;;7393559;19;20642;-73
2022/12/17 20:02:36;;;;;;;46.33;22.27;;;-1.10;99.90;;;;;;7394751;19;20165;-74
2022/12/17 20:05:01;;;;;;;50.93;24.00;;;-1.00;99.90;;;;;;7392075;19;20754;-74
2022/12/17 20:07:27;;;;;;;46.17;22.77;;;-1.00;99.90;;;;;;7395957;19;20139;-75
2022/12/17 20:09:53;;;;;;;48.47;22.53;;;-1.00;99.90;;;;;;7395336;19;20214;-74
2022/12/17 20:12:19;;;;;;;51.30;23.07;;;-1.00;99.90;;;;;;7396935;19;20525;-74
2022/12/17 20:14:44;;;;;;;43.73;22.93;;;-1.00;99.90;;;;;;7393567;19;20475;-75
2022/12/17 20:17:10;;;;;;;45.33;22.13;;;-0.90;99.90;;;;;;7390985;19;20143;-74
2022/12/17 20:19:36;;;;;;;43.63;21.93;;;-0.80;99.90;;;;;;7395361;19;20155;-75
2022/12/17 20:22:04;;;;;;;41.03;20.83;;;-0.80;99.90;;;;;;7392091;19;20654;-74
2022/12/17 20:24:30;;;;;;;41.83;21.13;;;-0.70;99.90;;;;;;7393899;19;20170;-72
2022/12/17 20:26:56;;;;;;;45.87;23.20;;;-0.80;99.90;;;;;;7396096;19;20658;-74
2022/12/17 20:29:24;;;;;;;43.83;22.70;;;-0.90;99.90;;;;;;7395651;19;20150;-74
2022/12/17 20:31:51;;;;;;;46.37;21.50;;;-0.90;99.90;;;;;;7396143;19;20143;-74
2022/12/17 20:34:22;;;;;;;46.67;21.60;;;-0.90;99.90;;;;;;7392584;19;20165;-74
2022/12/17 20:36:48;;;;;;;43.67;21.73;;;-1.00;99.90;;;;;;7396014;19;20140;-74
2022/12/17 20:39:15;;;;;;;43.33;22.30;;;-1.00;99.90;;;;;;7394782;19;20719;-74
2022/12/17 20:41:42;;;;;;;48.53;21.30;;;-1.00;99.90;;;;;;7391991;19;20153;-77
2022/12/17 20:44:12;;;;;;;44.30;22.03;;;-1.10;99.90;;;;;;7392328;19;20139;-73
2022/12/17 20:46:39;;;;;;;45.60;21.77;;;-1.10;99.90;;;;;;7393728;19;20526;-74
2022/12/17 20:49:06;;;;;;;47.37;21.80;;;-1.10;99.90;;;;;;7393152;19;20489;-73
2022/12/17 20:51:33;;;;;;;45.97;21.87;;;-1.20;99.90;;;;;;7392216;19;20134;-73
2022/12/17 20:54:00;;;;;;;45.87;22.23;;;-1.10;99.90;;;;;;7394073;19;20143;-73
2022/12/17 20:56:29;;;;;;;47.70;21.60;;;-1.20;99.90;;;;;;7394188;19;20638;-73
2022/12/17 20:58:57;;;;;;;45.23;22.17;;;-1.20;99.90;;;;;;7394551;19;20662;-74
2022/12/17 21:01:25;;;;;;;41.70;21.37;;;-1.20;99.90;;;;;;7391956;19;20154;-72
2022/12/17 21:03:53;;;;;;;46.77;22.23;;;-1.20;99.90;;;;;;7394098;19;20154;-72
2022/12/17 21:06:26;;;;;;;43.73;21.50;;;-1.10;99.90;;;;;;7394897;19;20143;-74
2022/12/17 21:08:54;;;;;;;42.67;21.27;;;-1.10;99.90;;;;;;7395715;19;20158;-75
2022/12/17 21:11:23;;;;;;;45.03;21.13;;;-1.60;99.90;;;;;;7390467;19;20233;-74
2022/12/17 21:13:50;;;;;;;42.43;22.57;;;-1.60;99.90;;;;;;7394060;19;20154;-75
2022/12/17 21:16:19;;;;;;;43.87;20.50;;;-1.80;99.90;;;;;;7392948;19;20151;-73
2022/12/17 21:18:45;;;;;;;42.43;20.63;;;-1.60;99.90;;;;;;7393376;19;20142;-74
2022/12/17 21:21:17;;;;;;;40.43;20.53;;;-1.50;99.90;;;;;;7392938;19;20162;-74
2022/12/17 21:23:44;;;;;;;43.20;20.70;;;-1.40;99.90;;;;;;7388764;19;20164;-73
2022/12/17 21:26:14;;;;;;;45.80;22.17;;;-1.30;99.90;;;;;;7390586;19;20158;-73
2022/12/17 21:28:43;;;;;;;41.50;20.93;;;-1.30;99.90;;;;;;7390949;19;21660;-73
2022/12/17 21:31:18;;;;;;;42.63;21.73;;;-1.30;99.90;;;;;;7393794;19;20134;-73
2022/12/17 21:33:47;;;;;;;41.77;21.63;;;-1.30;99.90;;;;;;7393068;19;20150;-72
2022/12/17 21:36:16;;;;;;;41.23;19.03;;;-1.30;99.90;;;;;;7394093;19;20153;-74
2022/12/17 21:38:42;;;;;;;38.43;19.80;;;-1.10;99.90;;;;;;7393814;19;20143;-73
2022/12/17 21:41:15;;;;;;;40.07;20.50;;;-1.10;99.90;;;;;;7394127;19;20146;-72
2022/12/17 21:43:41;;;;;;;40.77;20.47;;;-1.10;99.90;;;;;;7393054;19;20142;-72
2022/12/17 21:46:09;;;;;;;39.00;19.33;;;-1.10;99.90;;;;;;7394355;19;20135;-73
2022/12/17 21:48:37;;;;;;;41.67;20.77;;;-1.10;99.90;;;;;;7394280;19;20150;-74
2022/12/17 21:51:04;;;;;;;41.70;21.60;;;-1.20;99.90;;;;;;7393836;19;20161;-73
2022/12/17 21:53:30;;;;;;;42.63;19.73;;;-1.10;99.90;;;;;;7392399;19;20214;-74
2022/12/17 21:56:04;;;;;;;44.60;20.07;;;-1.20;99.90;;;;;;7393394;19;20219;-73
2022/12/17 21:58:30;;;;;;;39.93;20.20;;;-1.20;99.90;;;;;;7396035;19;20210;-76
2022/12/17 22:00:56;;;;;;;40.37;19.83;;;-1.20;99.90;;;;;;7394025;19;20143;-76
2022/12/17 22:03:22;;;;;;;37.97;19.23;;;-1.20;99.90;;;;;;7391488;19;20170;-76
2022/12/17 22:05:48;;;;;;;41.60;20.67;;;-1.10;99.90;;;;;;7395538;19;20146;-74
2022/12/17 22:08:14;;;;;;;42.87;19.43;;;-1.10;99.90;;;;;;7394173;19;20143;-75
2022/12/17 22:10:41;;;;;;;39.73;19.67;;;-1.10;99.90;;;;;;7393115;19;20198;-76
2022/12/17 22:15:53;;;;;;;43.10;19.47;;;-1.30;99.90;;;;;;7394755;19;20548;-76
2022/12/17 22:18:19;;;;;;;41.03;20.13;;;-1.30;99.90;;;;;;7392367;19;20626;-77
2022/12/17 22:20:54;;;;;;;43.50;20.90;;;-1.30;99.90;;;;;;7391885;19;20221;-76
2022/12/17 22:23:20;;;;;;;39.27;19.90;;;-1.20;99.90;;;;;;7390747;19;20146;-75
2022/12/17 22:25:46;;;;;;;44.43;19.83;;;-1.10;99.90;;;;;;7394002;19;20142;-75
2022/12/17 22:28:11;;;;;;;43.77;21.27;;;-1.10;99.90;;;;;;7391437;19;20503;-76
2022/12/17 22:33:21;;;;;;;45.00;21.53;;;-1.40;99.90;;;;;;7390851;19;20583;-76
2022/12/17 22:35:49;;;;;;;46.23;21.63;;;-1.20;99.90;;;;;;7393724;19;20148;-76
2022/12/17 22:38:15;;;;;;;45.97;21.97;;;-1.10;99.90;;;;;;7391859;19;20134;-76
2022/12/17 22:40:40;;;;;;;40.30;19.80;;;-1.10;99.90;;;;;;7391589;19;20159;-75
2022/12/17 22:45:58;;;;;;;45.00;20.63;;;-1.20;99.90;;;;;;7394022;19;20138;-75
2022/12/17 22:48:24;;;;;;;38.03;19.97;;;-2.00;99.90;;;;;;7390815;19;20615;-76
2022/12/17 22:50:50;;;;;;;44.87;21.20;;;-1.80;99.90;;;;;;7391764;19;20146;-76
2022/12/17 22:53:15;;;;;;;39.53;19.17;;;-1.60;99.90;;;;;;7392090;19;20606;-74
2022/12/17 22:55:41;;;;;;;42.33;20.50;;;-1.50;99.90;;;;;;7393439;19;20210;-74
2022/12/17 22:58:07;;;;;;;44.53;22.07;;;-1.40;99.90;;;;;;7390023;19;20148;-75
2022/12/17 23:00:35;;;;;;;46.67;21.00;;;-1.20;99.90;;;;;;7389148;19;20159;-75
2022/12/17 23:03:01;;;;;;;34.50;19.07;;;-1.20;99.90;;;;;;7387733;19;20608;-76
2022/12/17 23:05:27;;;;;;;41.80;20.10;;;-1.20;99.90;;;;;;7393101;19;20151;-76
2022/12/17 23:07:54;;;;;;;38.67;19.77;;;-1.30;99.90;;;;;;7392138;19;20157;-77
2022/12/17 23:10:20;;;;;;;46.07;21.47;;;-1.40;99.90;;;;;;7390783;19;20463;-75
2022/12/17 23:12:50;;;;;;;38.90;19.90;;;-1.40;99.90;;;;;;7389562;19;20139;-75
2022/12/17 23:15:29;;;;;;;37.73;18.77;;;-1.20;99.90;;;;;;7390028;19;20135;-75
2022/12/17 23:17:58;;;;;;;42.30;20.77;;;-1.60;99.90;;;;;;7392909;19;20139;-76
2022/12/17 23:20:29;;;;;;;38.67;19.93;;;-1.40;99.90;;;;;;7393677;19;20127;-76
2022/12/17 23:22:55;;;;;;;50.63;21.70;;;-1.40;99.90;;;;;;7389113;19;20155;-74
2022/12/17 23:25:24;;;;;;;41.73;19.87;;;-1.50;99.90;;;;;;7392465;19;20131;-75
2022/12/17 23:27:51;;;;;;;38.60;20.37;;;-2.20;99.90;;;;;;7390847;19;20142;-75
2022/12/17 23:30:18;;;;;;;45.17;20.33;;;-2.30;99.90;;;;;;7390300;19;20138;-74
2022/12/17 23:32:44;;;;;;;44.13;19.30;;;-1.90;99.90;;;;;;7391666;19;20202;-74
2022/12/17 23:35:11;;;;;;;41.17;21.33;;;-1.60;99.90;;;;;;7392759;19;20130;-76
2022/12/17 23:37:39;;;;;;;41.20;21.43;;;-1.40;99.90;;;;;;7397689;19;20490;-74
2022/12/17 23:40:09;;;;;;;43.23;20.30;;;-1.40;99.90;;;;;;7397365;19;20153;-75
2022/12/17 23:42:34;;;;;;;41.53;21.27;;;-1.50;99.90;;;;;;7394556;19;20636;-76
2022/12/17 23:45:00;;;;;;;43.63;20.40;;;-1.90;99.90;;;;;;7399292;19;20130;-75
2022/12/17 23:47:26;;;;;;;38.67;19.43;;;-1.60;99.90;;;;;;7398514;19;20145;-75
2022/12/17 23:49:52;;;;;;;47.67;21.20;;;-1.50;99.90;;;;;;7397584;19;20143;-74
2022/12/17 23:52:19;;;;;;;43.53;20.63;;;-1.50;99.90;;;;;;7396691;19;20139;-75
2022/12/17 23:54:46;;;;;;;40.07;19.23;;;-1.50;99.90;;;;;;7396617;19;20197;-74
2022/12/17 23:57:11;;;;;;;41.77;20.60;;;-1.60;99.90;;;;;;7397807;19;20143;-75
2022/12/17 23:59:37;;;;;;;47.87;21.37;;;-1.90;99.90;;;;;;7395387;19;20142;-75
